Columbus, North Dakota
Current Conditions -  °F | °C
As of 10:00 AM on Thursday 18 Dec 2014 (Local Time) from CYEN Reporting Station
Overcast Overcast  
Wind Chill: -12°   Ceiling: 1200
Heat Index: -8°   Visibility: 10mi
Dew Point: -10°   Wind: 5mph
Humidity: 86%   Direction: 120°ESE
Pressure: 30"   Gusts: NA
Location:  48.9°N, 102.78°W
Report Text: CYEN 181600Z 12004KT 10SM OVC012 M08/M10 A3000 RMK SC8 FG SLP201
Loading
Personal Weather Stations






























Interactive Weather Map New forecast layout! Learn more

10-Day Weather Forecast

Advertisements
Track Severe Weather on mobile